createdAt,value
2022-11-21T00:00:46.921Z,8.35
2022-11-21T00:04:12.028Z,7.70
2022-11-21T00:07:12.004Z,7.63
2022-11-21T00:10:23.916Z,8.07
2022-11-21T00:13:36.930Z,7.50
2022-11-21T00:17:01.966Z,7.50
2022-11-21T00:20:04.958Z,7.67
2022-11-21T00:23:20.995Z,7.85
2022-11-21T00:26:33.149Z,7.80
2022-11-21T00:29:45.976Z,8.30
2022-11-21T00:33:00.033Z,8.00
2022-11-21T00:36:11.975Z,7.40
2022-11-21T00:39:12.028Z,7.20
2022-11-21T00:42:24.049Z,8.00
2022-11-21T00:45:36.031Z,7.77
2022-11-21T00:49:02.033Z,7.45
2022-11-21T00:52:02.143Z,8.40
2022-11-21T00:55:14.096Z,7.05
2022-11-21T00:58:14.120Z,8.37
2022-11-21T01:01:38.089Z,7.20
2022-11-21T01:04:52.192Z,8.05
2022-11-21T01:08:07.082Z,7.07
2022-11-21T01:11:07.189Z,7.97
2022-11-21T01:14:31.186Z,7.93
2022-11-21T01:17:31.193Z,7.63
2022-11-21T01:20:57.172Z,7.55
2022-11-21T01:24:09.364Z,7.15
2022-11-21T01:27:22.175Z,8.30
2022-11-21T01:30:26.200Z,7.27
2022-11-21T01:33:38.186Z,6.93
2022-11-21T01:36:51.230Z,7.43
2022-11-21T01:40:03.212Z,8.93
2022-11-21T01:43:18.205Z,7.65
2022-11-21T01:46:42.284Z,7.67
2022-11-21T01:49:54.302Z,7.57
2022-11-21T01:53:19.226Z,7.05
2022-11-21T01:56:34.325Z,7.77
2022-11-21T01:59:58.249Z,7.80
2022-11-21T02:03:25.293Z,7.55
2022-11-21T02:06:50.404Z,8.00
2022-11-21T02:10:04.267Z,8.50
2022-11-21T02:13:16.282Z,7.73
2022-11-21T02:16:28.311Z,7.73
2022-11-21T02:19:55.334Z,7.17
2022-11-21T02:23:07.323Z,7.45
2022-11-21T02:26:33.393Z,8.50
2022-11-21T02:29:45.362Z,6.83
2022-11-21T02:33:09.416Z,6.97
2022-11-21T02:36:22.370Z,7.87
2022-11-21T02:39:46.403Z,7.23
2022-11-21T02:43:00.432Z,7.50
2022-11-21T02:46:12.575Z,7.75
2022-11-21T02:49:24.439Z,7.03
2022-11-21T02:52:39.496Z,6.83
2022-11-21T02:55:51.422Z,7.30
2022-11-21T02:59:19.406Z,7.90
2022-11-21T03:02:19.516Z,7.83
2022-11-21T03:05:44.503Z,7.97
2022-11-21T03:08:44.496Z,7.90
2022-11-21T03:12:08.510Z,7.70
2022-11-21T03:15:21.490Z,7.63
2022-11-21T03:18:33.540Z,7.90
2022-11-21T03:21:33.508Z,7.15
2022-11-21T03:24:58.551Z,7.70
2022-11-21T03:27:58.597Z,6.70
2022-11-21T03:31:24.598Z,7.80
2022-11-21T03:34:36.534Z,7.33
2022-11-21T03:37:51.582Z,7.37
2022-11-21T03:40:51.557Z,7.90
2022-11-21T03:44:16.605Z,6.67
2022-11-21T03:47:30.657Z,8.25
2022-11-21T03:50:43.626Z,7.05
2022-11-21T03:53:56.664Z,7.37
2022-11-21T03:57:08.677Z,7.43
2022-11-21T04:00:11.666Z,7.40
2022-11-21T04:03:37.714Z,7.50
2022-11-21T04:06:40.662Z,6.97
2022-11-21T04:09:53.659Z,8.30
2022-11-21T04:12:53.724Z,6.17
2022-11-21T04:16:05.726Z,7.73
2022-11-21T04:19:18.724Z,7.03
2022-11-21T04:22:31.725Z,6.57
2022-11-21T04:25:31.703Z,7.30
2022-11-21T04:28:44.731Z,6.80
2022-11-21T04:31:44.748Z,7.50
2022-11-21T04:35:13.734Z,7.37
2022-11-21T04:38:13.805Z,7.47
2022-11-21T04:41:25.817Z,7.17
2022-11-21T04:44:26.147Z,7.70
2022-11-21T04:47:37.811Z,7.67
2022-11-21T04:50:51.806Z,7.40
2022-11-21T04:54:03.789Z,7.80
2022-11-21T04:57:03.876Z,7.37
2022-11-21T05:00:30.856Z,7.37
2022-11-21T05:03:30.831Z,6.80
2022-11-21T05:06:56.855Z,6.53
2022-11-21T05:10:08.887Z,7.63
2022-11-21T05:13:21.096Z,7.57
2022-11-21T05:16:20.881Z,6.70
2022-11-21T05:19:32.892Z,7.95
2022-11-21T05:22:45.931Z,7.40
2022-11-21T05:25:58.926Z,6.50
2022-11-21T05:28:59.924Z,7.00
2022-11-21T05:32:11.928Z,6.93
2022-11-21T05:35:11.994Z,7.00
2022-11-21T05:38:38.937Z,9.20
2022-11-21T05:41:38.936Z,7.30
2022-11-21T05:44:39.340Z,7.93
2022-11-21T05:47:40.033Z,7.03
2022-11-21T05:50:51.964Z,7.33
2022-11-21T05:54:06.038Z,7.60
2022-11-21T05:57:30.981Z,7.70
2022-11-21T06:00:34.016Z,6.33
2022-11-21T06:03:45.250Z,7.77
2022-11-21T06:06:57.029Z,8.07
2022-11-21T06:10:23.039Z,7.33
2022-11-21T06:13:23.081Z,6.90
2022-11-21T06:16:47.002Z,7.10
2022-11-21T06:19:50.188Z,7.40
2022-11-21T06:23:03.075Z,7.30
2022-11-21T06:26:22.131Z,7.30
2022-11-21T06:29:34.112Z,7.37
2022-11-21T06:32:34.167Z,8.45
2022-11-21T06:35:58.086Z,7.73
2022-11-21T06:39:10.152Z,6.77
2022-11-21T06:42:36.141Z,8.05
2022-11-21T06:45:36.180Z,6.30
2022-11-21T06:49:00.146Z,7.37
2022-11-21T06:52:12.219Z,8.27
2022-11-21T06:55:25.220Z,8.07
2022-11-21T06:58:39.210Z,7.75
2022-11-21T07:01:55.295Z,8.23
2022-11-21T07:05:07.243Z,8.03
2022-11-21T07:08:19.202Z,7.10
2022-11-21T07:11:31.299Z,7.53
2022-11-21T07:14:57.322Z,7.70
2022-11-21T07:17:57.272Z,6.90
2022-11-21T07:21:22.248Z,7.80
2022-11-21T07:24:22.365Z,7.53
2022-11-21T07:27:34.288Z,7.43
2022-11-21T07:30:48.280Z,7.23
2022-11-21T07:34:01.377Z,8.30
2022-11-21T07:37:01.333Z,8.03
2022-11-21T07:40:13.340Z,8.23
2022-11-21T07:43:25.363Z,7.40
2022-11-21T07:46:51.405Z,8.20
2022-11-21T07:49:54.345Z,8.13
2022-11-21T07:53:21.337Z,8.93
2022-11-21T07:56:22.344Z,8.80
2022-11-21T07:59:34.350Z,8.35
2022-11-21T08:02:47.424Z,7.85
2022-11-21T08:06:11.439Z,8.83
2022-11-21T08:09:11.406Z,8.00
2022-11-21T08:12:35.438Z,8.57
2022-11-21T08:15:35.464Z,8.47
2022-11-21T08:19:01.446Z,8.95
2022-11-21T08:22:01.414Z,8.35
2022-11-21T08:25:14.442Z,9.10
2022-11-21T08:28:15.452Z,8.63
2022-11-21T08:31:39.509Z,8.83
2022-11-21T08:34:53.493Z,8.95
2022-11-21T08:38:20.545Z,8.40
2022-11-21T08:41:50.225Z,8.63
2022-11-21T08:45:02.537Z,9.67
2022-11-21T08:48:02.507Z,8.97
2022-11-21T08:51:28.577Z,8.00
2022-11-21T08:54:40.532Z,9.50
2022-11-21T08:58:04.602Z,7.50
2022-11-21T09:01:04.655Z,9.20
2022-11-21T09:04:16.634Z,9.07
2022-11-21T09:07:33.595Z,8.23
2022-11-21T09:10:45.546Z,9.57
2022-11-21T09:13:45.665Z,9.13
2022-11-21T09:17:03.590Z,9.30
2022-11-21T09:20:03.782Z,8.70
2022-11-21T09:23:30.579Z,8.03
2022-11-21T09:26:30.623Z,9.30
2022-11-21T09:29:43.506Z,8.30
2022-11-21T09:32:54.710Z,10.17
2022-11-21T09:36:06.712Z,9.60
2022-11-21T09:39:20.711Z,8.83
2022-11-21T09:42:50.753Z,8.97
2022-11-21T09:46:03.856Z,10.13
2022-11-21T09:49:29.992Z,9.47
2022-11-21T09:52:41.732Z,10.60
2022-11-21T09:56:10.686Z,10.05
2022-11-21T09:59:27.712Z,10.07
2022-11-21T10:02:55.817Z,8.97
2022-11-21T10:06:19.751Z,10.80
2022-11-21T10:09:34.754Z,8.90
2022-11-21T10:13:00.803Z,9.20
2022-11-21T10:16:15.820Z,10.33
2022-11-21T10:19:41.920Z,9.95
2022-11-21T10:22:59.853Z,9.45
2022-11-21T10:26:29.848Z,9.27
2022-11-21T10:29:45.841Z,11.67
2022-11-21T10:33:09.916Z,9.10
2022-11-21T10:36:21.856Z,10.50
2022-11-21T10:39:45.828Z,10.30
2022-11-21T10:42:57.899Z,9.70
2022-11-21T10:46:22.887Z,8.97
2022-11-21T10:49:34.942Z,9.40
2022-11-21T10:52:58.931Z,10.13
2022-11-21T10:56:16.892Z,10.25
2022-11-21T10:59:43.945Z,9.43
2022-11-21T11:02:56.921Z,9.20
2022-11-21T11:06:20.959Z,9.63
2022-11-21T11:09:34.016Z,8.80
2022-11-21T11:12:48.571Z,10.07
2022-11-21T11:16:04.001Z,9.60
2022-11-21T11:19:38.451Z,8.83
2022-11-21T11:22:51.020Z,8.87
2022-11-21T11:26:19.044Z,9.15
2022-11-21T11:29:33.970Z,9.13
2022-11-21T11:32:58.069Z,9.45
2022-11-21T11:36:12.069Z,9.57
2022-11-21T11:39:39.172Z,10.93
2022-11-21T11:43:06.146Z,9.23
2022-11-21T11:46:37.528Z,8.57
2022-11-21T11:49:52.119Z,8.17
2022-11-21T11:53:19.233Z,8.10
2022-11-21T11:56:31.145Z,9.60
2022-11-21T11:59:56.128Z,8.87
2022-11-21T12:03:12.159Z,9.10
2022-11-21T12:07:31.424Z,8.70
2022-11-21T12:09:51.110Z,9.05
2022-11-21T12:13:15.143Z,9.00
2022-11-21T12:16:27.198Z,9.20
2022-11-21T12:19:51.201Z,8.23
2022-11-21T12:22:51.220Z,9.33
2022-11-21T12:26:17.241Z,8.70
2022-11-21T12:29:31.487Z,11.13
2022-11-21T12:33:00.230Z,10.27
2022-11-21T12:36:26.203Z,10.10
2022-11-21T12:39:57.215Z,9.73
2022-11-21T12:43:11.281Z,10.10
2022-11-21T12:46:38.274Z,9.77
2022-11-21T12:49:55.870Z,10.07
2022-11-21T12:53:28.737Z,9.63
2022-11-21T12:56:42.246Z,9.00
2022-11-21T13:00:10.291Z,9.77
2022-11-21T13:03:29.301Z,11.20
2022-11-21T13:06:53.318Z,10.50
2022-11-21T13:10:06.365Z,11.20
2022-11-21T13:13:31.384Z,11.07
2022-11-21T13:16:51.340Z,11.47
2022-11-21T13:20:16.423Z,14.67
2022-11-21T13:23:32.411Z,11.00
2022-11-21T13:27:15.407Z,11.80
2022-11-21T13:30:47.453Z,11.27
2022-11-21T13:34:19.415Z,11.93
2022-11-21T13:37:19.424Z,12.27
2022-11-21T13:41:03.519Z,12.40
2022-11-21T13:44:03.460Z,11.43
2022-11-21T13:47:28.474Z,12.23
2022-11-21T13:50:43.455Z,11.60
2022-11-21T13:54:31.561Z,11.47
2022-11-21T13:57:46.508Z,12.53
2022-11-21T14:01:15.484Z,11.40
2022-11-21T14:04:54.559Z,14.53
2022-11-21T14:08:07.592Z,13.35
2022-11-21T14:11:43.587Z,12.60
2022-11-21T14:14:59.486Z,13.70
2022-11-21T14:18:23.566Z,12.47
2022-11-21T14:21:42.538Z,11.87
2022-11-21T14:25:09.612Z,11.83
2022-11-21T14:28:21.535Z,11.23
2022-11-21T14:31:33.628Z,12.57
2022-11-21T14:34:51.572Z,12.30
2022-11-21T14:38:15.672Z,12.50
2022-11-21T14:41:48.582Z,14.60
2022-11-21T14:45:13.662Z,12.60
2022-11-21T14:48:13.607Z,13.63
2022-11-21T14:51:39.696Z,13.47
2022-11-21T14:55:22.357Z,12.87
2022-11-21T14:58:18.653Z,13.40
2022-11-21T15:01:30.685Z,13.73
2022-11-21T15:04:55.660Z,12.87
2022-11-21T15:08:38.668Z,13.53
2022-11-21T15:11:31.677Z,14.15
2022-11-21T15:14:47.192Z,13.80
2022-11-21T15:18:26.861Z,14.43
2022-11-21T15:21:22.746Z,14.30
2022-11-21T15:24:54.760Z,15.27
2022-11-21T15:28:06.714Z,14.93
2022-11-21T15:31:41.776Z,14.40
2022-11-21T15:34:41.881Z,16.00
2022-11-21T15:38:12.821Z,14.65
2022-11-21T15:41:28.870Z,15.17
2022-11-21T15:44:40.774Z,15.33
2022-11-21T15:47:54.775Z,16.70
2022-11-21T15:51:07.909Z,15.10
2022-11-21T15:54:07.876Z,17.80
2022-11-21T15:57:32.904Z,18.90
2022-11-21T16:00:32.891Z,16.10
2022-11-21T16:03:58.903Z,14.47
2022-11-21T16:06:58.848Z,15.00
2022-11-21T16:10:18.388Z,17.43
2022-11-21T16:13:10.892Z,16.53
2022-11-21T16:16:25.968Z,15.20
2022-11-21T16:19:38.901Z,15.90
2022-11-21T16:22:50.896Z,15.00
2022-11-21T16:26:03.127Z,15.17
2022-11-21T16:29:27.348Z,15.85
2022-11-21T16:32:27.005Z,14.83
2022-11-21T16:35:54.010Z,15.25
2022-11-21T16:39:12.356Z,16.40
2022-11-21T16:42:38.068Z,17.67
2022-11-21T16:45:37.953Z,15.83
2022-11-21T16:48:51.040Z,15.55
2022-11-21T16:52:05.056Z,16.00
2022-11-21T16:55:19.015Z,15.35
2022-11-21T16:58:30.992Z,15.57
2022-11-21T17:01:44.167Z,15.33
2022-11-21T17:04:45.067Z,15.63
2022-11-21T17:08:12.071Z,14.57
2022-11-21T17:11:12.056Z,14.80
2022-11-21T17:14:36.048Z,14.65
2022-11-21T17:17:36.071Z,14.63
2022-11-21T17:20:48.146Z,15.10
2022-11-21T17:24:02.079Z,13.80
2022-11-21T17:27:17.124Z,13.67
2022-11-21T17:30:18.139Z,13.70
2022-11-21T17:33:30.160Z,12.95
2022-11-21T17:36:46.176Z,12.85
2022-11-21T17:40:11.168Z,12.47
2022-11-21T17:43:11.252Z,12.20
2022-11-21T17:46:35.150Z,12.97
2022-11-21T17:49:35.183Z,13.53
2022-11-21T17:52:47.180Z,12.40
2022-11-21T17:56:01.232Z,12.73
2022-11-21T17:59:26.580Z,12.37
2022-11-21T18:02:26.351Z,12.57
2022-11-21T18:05:38.315Z,11.87
2022-11-21T18:08:38.256Z,12.35
2022-11-21T18:12:06.218Z,12.20
2022-11-21T18:15:09.233Z,11.85
2022-11-21T18:18:22.258Z,12.37
2022-11-21T18:21:35.351Z,13.57
2022-11-21T18:24:47.313Z,12.63
2022-11-21T18:28:00.327Z,13.17
2022-11-21T18:31:28.340Z,10.40
2022-11-21T18:34:28.319Z,11.10
2022-11-21T18:37:43.335Z,12.10
2022-11-21T18:40:43.355Z,13.50
2022-11-21T18:44:09.365Z,12.03
2022-11-21T18:47:20.091Z,12.77
2022-11-21T18:50:22.330Z,12.53
2022-11-21T18:53:22.348Z,13.15
2022-11-21T18:56:47.311Z,12.33
2022-11-21T19:00:00.448Z,13.83
2022-11-21T19:03:12.377Z,12.47
2022-11-21T19:06:25.464Z,15.07
2022-11-21T19:09:41.466Z,12.67
2022-11-21T19:12:53.466Z,14.70
2022-11-21T19:16:19.461Z,13.30
2022-11-21T19:19:34.717Z,13.73
2022-11-21T19:22:44.437Z,14.40
2022-11-21T19:25:56.543Z,14.47
2022-11-21T19:29:08.476Z,14.00
2022-11-21T19:32:22.509Z,14.33
2022-11-21T19:35:35.523Z,14.80
2022-11-21T19:38:35.475Z,15.15
2022-11-21T19:41:47.547Z,14.40
2022-11-21T19:44:47.521Z,14.47
2022-11-21T19:48:13.498Z,14.00
2022-11-21T19:51:25.611Z,14.60
2022-11-21T19:54:38.609Z,13.97
2022-11-21T19:57:38.656Z,14.57
2022-11-21T20:00:50.557Z,14.90
2022-11-21T20:04:16.569Z,13.47
2022-11-21T20:07:16.639Z,14.47
2022-11-21T20:10:29.573Z,14.70
2022-11-21T20:13:29.615Z,14.05
2022-11-21T20:16:54.662Z,13.20
2022-11-21T20:20:08.662Z,13.00
2022-11-21T20:23:20.693Z,13.23
2022-11-21T20:26:32.682Z,12.97
2022-11-21T20:29:44.683Z,13.57
2022-11-21T20:32:56.659Z,12.60
2022-11-21T20:36:27.739Z,12.70
2022-11-21T20:39:39.805Z,12.83
2022-11-21T20:42:51.727Z,13.10
2022-11-21T20:46:10.746Z,12.70
2022-11-21T20:49:19.764Z,11.53
2022-11-21T20:55:46.755Z,11.40
2022-11-21T20:58:58.735Z,11.67
2022-11-21T21:02:13.939Z,11.53
2022-11-21T21:05:13.816Z,11.73
2022-11-21T21:08:43.874Z,11.80
2022-11-21T21:11:52.956Z,11.30
2022-11-21T21:14:56.868Z,11.35
2022-11-21T21:17:56.862Z,11.10
2022-11-21T21:21:27.834Z,11.33
2022-11-21T21:24:44.841Z,11.57
2022-11-21T21:28:08.820Z,10.73
2022-11-21T21:31:11.849Z,11.53
2022-11-21T21:34:23.835Z,11.15
2022-11-21T21:37:23.932Z,11.10
2022-11-21T21:40:54.935Z,11.67
2022-11-21T21:43:54.940Z,11.03
2022-11-21T21:47:06.926Z,11.57
2022-11-21T21:50:10.204Z,9.73
2022-11-21T21:53:18.930Z,9.40
2022-11-21T21:56:32.970Z,9.30
2022-11-21T21:59:46.078Z,9.50
2022-11-21T22:02:45.931Z,9.47
2022-11-21T22:05:57.976Z,9.27
2022-11-21T22:09:09.965Z,9.47
2022-11-21T22:12:38.862Z,9.13
2022-11-21T22:15:36.002Z,9.47
2022-11-21T22:19:03.039Z,8.43
2022-11-21T22:22:03.111Z,8.97
2022-11-21T22:25:27.979Z,9.23
2022-11-21T22:28:42.034Z,8.83
2022-11-21T22:31:54.036Z,8.70
2022-11-21T22:34:54.139Z,8.40
2022-11-21T22:38:06.084Z,8.70
2022-11-21T22:41:25.129Z,8.20
2022-11-21T22:44:57.116Z,8.40
2022-11-21T22:48:09.058Z,8.80
2022-11-21T22:51:33.103Z,8.07
2022-11-21T22:54:33.110Z,8.60
2022-11-21T22:57:58.134Z,7.80
2022-11-21T23:01:12.152Z,7.03
2022-11-21T23:04:24.131Z,8.27
2022-11-21T23:07:27.173Z,6.87
2022-11-21T23:10:39.179Z,6.93
2022-11-21T23:13:39.222Z,7.23
2022-11-21T23:17:06.173Z,7.65
2022-11-21T23:20:06.192Z,7.90
2022-11-21T23:23:21.264Z,6.93
2022-11-21T23:26:33.279Z,7.67
2022-11-21T23:29:45.206Z,7.43
2022-11-21T23:32:59.311Z,8.00
2022-11-21T23:36:11.302Z,6.90
2022-11-21T23:39:11.227Z,7.53
2022-11-21T23:42:23.291Z,6.63
2022-11-21T23:45:24.264Z,7.37
2022-11-21T23:48:49.299Z,7.17
2022-11-21T23:51:37.720Z,7.37
2022-11-21T23:54:50.261Z,6.40
2022-11-21T23:57:50.302Z,6.10
